Time;durP1;ratioP1;P1;durP2;ratioP2;P2;SDS_P1;SDS_P2;PMS_P1;PMS_P2;Temp;Humidity;BMP_temperature;BMP_pressure;BME280_temperature;BME280_humidity;BME280_pressure;Samples;Min_cycle;Max_cycle;Signal;HPM_P1;HPM_P2
2022/08/25 00:01:59;;;;;;;5.10;2.10;;;23.00;99.90;;;;;;5086380;28;20859;-75
2022/08/25 00:04:28;;;;;;;4.15;2.10;;;22.90;99.90;;;;;;5097921;28;20196;-77
2022/08/25 00:06:55;;;;;;;8.38;2.08;;;22.90;99.90;;;;;;5105317;28;20203;-77
2022/08/25 00:09:25;;;;;;;3.88;2.10;;;23.00;99.90;;;;;;5109570;28;20225;-75
2022/08/25 00:11:53;;;;;;;6.95;2.10;;;22.90;99.90;;;;;;5111355;28;20178;-77
2022/08/25 00:14:32;;;;;;;3.65;2.15;;;22.90;99.90;;;;;;5108234;28;20276;-77
2022/08/25 00:17:01;;;;;;;4.32;2.03;;;22.90;99.90;;;;;;5109465;28;20193;-77
2022/08/25 00:19:33;;;;;;;8.95;2.20;;;23.00;99.90;;;;;;5106510;28;20194;-77
2022/08/25 00:22:00;;;;;;;6.38;2.40;;;23.00;99.90;;;;;;5089003;28;20635;-75
2022/08/25 00:24:27;;;;;;;5.95;2.40;;;22.90;99.90;;;;;;5098605;28;20197;-77
2022/08/25 00:26:58;;;;;;;4.75;2.30;;;22.90;99.90;;;;;;5110443;28;20189;-77
2022/08/25 00:29:26;;;;;;;4.57;2.00;;;22.90;99.90;;;;;;5109292;28;20233;-77
2022/08/25 00:31:54;;;;;;;4.25;2.17;;;22.90;99.90;;;;;;5108186;28;20182;-77
2022/08/25 00:34:26;;;;;;;6.50;2.28;;;22.90;99.90;;;;;;5073687;28;20624;-77
2022/08/25 00:36:53;;;;;;;4.78;2.33;;;22.80;99.90;;;;;;5085088;28;20189;-77
2022/08/25 00:39:23;;;;;;;5.63;2.33;;;22.80;99.90;;;;;;5090980;28;20292;-77
2022/08/25 00:41:55;;;;;;;5.40;2.30;;;22.80;99.90;;;;;;5088547;28;20624;-77
2022/08/25 00:44:22;;;;;;;5.35;2.33;;;22.80;99.90;;;;;;5095487;28;20196;-77
2022/08/25 00:46:57;;;;;;;4.53;2.20;;;22.80;99.90;;;;;;5125269;27;20200;-77
2022/08/25 00:49:45;;;;;;;6.38;2.30;;;22.90;99.90;;;;;;5105238;28;20299;-77
2022/08/25 00:52:22;;;;;;;6.32;2.72;;;22.90;99.90;;;;;;5071607;28;20184;-77
2022/08/25 00:54:57;;;;;;;6.03;2.58;;;22.80;99.90;;;;;;5111765;27;20189;-77
2022/08/25 00:58:09;;;;;;;4.30;2.55;;;22.80;99.90;;;;;;5102107;28;20184;-77
2022/08/25 01:00:47;;;;;;;3.45;2.10;;;22.80;99.90;;;;;;5064530;28;20187;-77
2022/08/25 01:03:13;;;;;;;6.85;2.30;;;22.70;99.90;;;;;;5069562;28;20182;-77
2022/08/25 01:05:42;;;;;;;7.45;2.30;;;22.70;99.90;;;;;;5094637;28;21077;-77
2022/08/25 01:08:13;;;;;;;4.72;2.30;;;22.70;99.90;;;;;;5091898;28;20236;-77
2022/08/25 01:10:43;;;;;;;6.43;2.40;;;22.70;99.90;;;;;;5108678;28;20174;-77
2022/08/25 01:13:31;;;;;;;5.70;2.40;;;22.70;99.90;;;;;;5108470;28;20178;-77
2022/08/25 01:15:58;;;;;;;3.85;2.40;;;22.70;99.90;;;;;;5108609;28;20184;-77
2022/08/25 01:18:27;;;;;;;4.25;2.65;;;22.70;99.90;;;;;;5108425;28;20201;-77
2022/08/25 01:20:56;;;;;;;4.80;2.42;;;22.70;99.90;;;;;;5097110;28;20217;-77
2022/08/25 01:23:24;;;;;;;5.55;2.42;;;22.80;99.90;;;;;;5093775;28;20251;-77
2022/08/25 01:26:14;;;;;;;4.00;2.45;;;22.80;99.90;;;;;;5088071;28;20752;-75
2022/08/25 01:31:31;;;;;;;5.72;2.80;;;22.70;99.90;;;;;;5067989;28;20175;-77
2022/08/25 01:33:58;;;;;;;7.03;2.85;;;22.70;99.90;;;;;;5052140;28;20241;-76
2022/08/25 01:36:27;;;;;;;5.20;2.78;;;22.70;99.90;;;;;;5120131;28;20186;-77
2022/08/25 01:38:55;;;;;;;4.63;2.60;;;22.70;99.90;;;;;;5098157;28;20193;-77
2022/08/25 01:41:33;;;;;;;6.15;2.72;;;22.70;99.90;;;;;;5110711;28;20786;-77
2022/08/25 01:44:06;;;;;;;6.65;2.90;;;22.70;99.90;;;;;;5113879;28;20249;-77
2022/08/25 01:46:33;;;;;;;6.20;3.08;;;22.60;99.90;;;;;;5112524;28;20224;-77
2022/08/25 01:49:01;;;;;;;3.83;2.67;;;22.60;99.90;;;;;;5110202;28;20282;-77
2022/08/25 01:51:34;;;;;;;4.63;2.75;;;22.60;99.90;;;;;;5093323;28;20687;-77
2022/08/25 01:54:03;;;;;;;8.73;2.70;;;22.60;99.90;;;;;;5091936;28;20193;-75
2022/08/25 01:56:30;;;;;;;6.97;2.60;;;22.60;99.90;;;;;;5106536;28;20175;-77
2022/08/25 01:58:56;;;;;;;3.70;2.63;;;22.60;99.90;;;;;;5099537;28;20192;-77
2022/08/25 02:01:23;;;;;;;6.85;3.10;;;22.60;99.90;;;;;;5111582;28;20251;-77
2022/08/25 02:03:54;;;;;;;5.43;2.58;;;22.60;99.90;;;;;;5071432;28;20281;-77
2022/08/25 02:06:30;;;;;;;4.43;2.80;;;22.60;99.90;;;;;;5117845;27;20192;-77
2022/08/25 02:09:03;;;;;;;6.55;2.70;;;22.60;99.90;;;;;;5083221;28;20289;-77
2022/08/25 02:11:31;;;;;;;6.05;2.95;;;22.50;99.90;;;;;;5095679;28;20183;-77
2022/08/25 02:13:58;;;;;;;6.90;2.50;;;22.50;99.90;;;;;;5091328;28;20193;-77
2022/08/25 02:16:32;;;;;;;6.70;2.70;;;22.50;99.90;;;;;;5074756;28;20178;-77
2022/08/25 02:19:00;;;;;;;6.22;2.90;;;22.40;99.90;;;;;;5082719;28;20209;-77
2022/08/25 02:21:27;;;;;;;5.43;2.50;;;22.40;99.90;;;;;;5111827;28;20238;-77
2022/08/25 02:23:54;;;;;;;6.63;2.85;;;22.40;99.90;;;;;;5122678;27;20288;-76
2022/08/25 02:26:20;;;;;;;6.47;2.55;;;22.40;99.90;;;;;;5086793;28;20186;-76
2022/08/25 02:28:49;;;;;;;4.80;2.42;;;22.50;99.90;;;;;;5098753;28;20292;-77
2022/08/25 02:31:17;;;;;;;7.57;3.00;;;22.40;99.90;;;;;;5111442;28;20188;-77
2022/08/25 02:33:44;;;;;;;5.40;2.72;;;22.40;99.90;;;;;;5128808;27;20182;-77
2022/08/25 02:36:11;;;;;;;6.57;2.70;;;22.40;99.90;;;;;;5097779;27;20191;-77
2022/08/25 02:38:38;;;;;;;8.18;2.78;;;22.40;99.90;;;;;;5095097;28;20190;-77
2022/08/25 02:41:19;;;;;;;6.18;2.80;;;22.40;99.90;;;;;;5088841;28;20186;-77
2022/08/25 02:43:48;;;;;;;9.15;2.55;;;22.40;99.90;;;;;;5104317;28;20636;-77
2022/08/25 02:46:18;;;;;;;6.95;2.95;;;22.50;99.90;;;;;;5083028;28;20654;-77
2022/08/25 02:48:46;;;;;;;5.97;2.90;;;22.40;99.90;;;;;;5097189;28;20220;-77
2022/08/25 02:51:14;;;;;;;5.68;2.60;;;22.40;99.90;;;;;;5100775;28;20548;-77
2022/08/25 02:53:44;;;;;;;5.45;2.70;;;22.40;99.90;;;;;;5101688;28;20194;-77
2022/08/25 02:56:13;;;;;;;5.00;2.42;;;22.40;99.90;;;;;;5107502;28;20232;-77
2022/08/25 02:58:41;;;;;;;7.60;2.70;;;22.40;99.90;;;;;;5089967;28;20197;-77
2022/08/25 03:01:12;;;;;;;4.07;2.47;;;22.40;99.90;;;;;;5088046;28;20842;-77
2022/08/25 03:03:40;;;;;;;7.95;2.42;;;22.30;99.90;;;;;;5090040;28;20194;-77
2022/08/25 03:06:12;;;;;;;6.72;2.55;;;22.30;99.90;;;;;;5088384;28;20194;-77
2022/08/25 03:08:41;;;;;;;4.88;2.40;;;22.30;99.90;;;;;;5088537;28;20217;-77
2022/08/25 03:11:08;;;;;;;6.65;2.90;;;22.30;99.90;;;;;;5087303;28;20192;-77
2022/08/25 03:13:34;;;;;;;5.55;2.72;;;22.30;99.90;;;;;;5122368;27;20277;-77
2022/08/25 03:16:03;;;;;;;7.18;2.80;;;22.30;99.90;;;;;;5086478;28;20191;-77
2022/08/25 03:18:30;;;;;;;5.00;2.47;;;22.40;99.90;;;;;;5076948;28;20699;-77
2022/08/25 03:20:58;;;;;;;6.65;2.78;;;22.40;99.90;;;;;;5101726;28;20243;-77
2022/08/25 03:23:25;;;;;;;8.80;2.50;;;22.40;99.90;;;;;;5066874;28;20190;-77
2022/08/25 03:28:41;;;;;;;6.18;2.92;;;22.40;99.90;;;;;;5123910;27;20210;-77
2022/08/25 03:31:08;;;;;;;8.53;2.33;;;22.30;99.90;;;;;;5091398;28;20796;-77
2022/08/25 03:33:37;;;;;;;4.68;2.40;;;22.30;99.90;;;;;;5095568;28;20676;-77
2022/08/25 03:36:04;;;;;;;5.93;2.67;;;22.40;99.90;;;;;;5080877;28;20659;-77
2022/08/25 03:38:31;;;;;;;8.95;2.70;;;22.40;99.90;;;;;;5085183;28;20224;-77
2022/08/25 03:40:57;;;;;;;5.55;2.80;;;22.40;99.90;;;;;;5089828;28;20193;-75
2022/08/25 03:43:23;;;;;;;3.55;2.70;;;22.30;99.90;;;;;;5076672;28;20197;-77
2022/08/25 03:45:50;;;;;;;7.25;2.90;;;22.30;99.90;;;;;;5101191;28;20188;-77
2022/08/25 03:48:16;;;;;;;6.22;2.67;;;22.30;99.90;;;;;;5081343;28;20257;-77
2022/08/25 03:50:50;;;;;;;6.03;3.00;;;22.30;99.90;;;;;;5089542;28;20198;-77
2022/08/25 03:53:19;;;;;;;7.40;3.15;;;22.30;99.90;;;;;;5108458;28;20185;-77
2022/08/25 03:55:46;;;;;;;4.75;2.97;;;22.30;99.90;;;;;;5111417;28;20575;-77
2022/08/25 03:58:12;;;;;;;4.80;2.70;;;22.30;99.90;;;;;;5109669;28;20268;-77
2022/08/25 04:00:39;;;;;;;6.05;2.90;;;22.30;99.90;;;;;;5093113;27;20228;-77
2022/08/25 04:03:06;;;;;;;8.70;2.90;;;22.40;99.90;;;;;;5121812;27;20221;-77
2022/08/25 04:05:34;;;;;;;5.53;2.55;;;22.40;99.90;;;;;;5091160;28;20573;-77
2022/08/25 04:08:00;;;;;;;5.15;2.70;;;22.40;99.90;;;;;;5072330;28;20205;-77
2022/08/25 04:10:26;;;;;;;6.72;2.95;;;22.40;99.90;;;;;;5072599;28;20185;-77
2022/08/25 04:12:54;;;;;;;4.93;2.70;;;22.40;99.90;;;;;;5109723;28;20232;-77
2022/08/25 04:15:21;;;;;;;6.75;2.92;;;22.40;99.90;;;;;;5091389;28;20188;-77
2022/08/25 04:17:47;;;;;;;9.60;3.10;;;22.40;99.90;;;;;;5092682;28;20708;-77
2022/08/25 04:20:13;;;;;;;8.68;3.25;;;22.50;99.90;;;;;;5104237;28;20189;-77
2022/08/25 04:22:40;;;;;;;5.00;2.80;;;22.50;99.90;;;;;;5093676;28;20210;-77
2022/08/25 04:25:07;;;;;;;5.47;3.13;;;22.50;99.90;;;;;;5088849;28;20220;-77
2022/08/25 04:27:35;;;;;;;8.60;3.45;;;22.60;99.90;;;;;;5074488;28;20599;-77
2022/08/25 04:30:01;;;;;;;6.45;3.00;;;22.50;99.90;;;;;;5086965;28;20206;-77
2022/08/25 04:32:28;;;;;;;4.03;2.85;;;22.50;99.90;;;;;;5104650;28;20185;-77
2022/08/25 04:34:54;;;;;;;8.20;3.08;;;22.50;99.90;;;;;;5088143;28;20174;-77
2022/08/25 04:37:20;;;;;;;4.43;2.67;;;22.60;99.90;;;;;;5090167;28;20175;-77
2022/08/25 04:39:46;;;;;;;6.97;3.30;;;22.60;99.90;;;;;;5090493;28;20264;-77
2022/08/25 04:42:12;;;;;;;5.68;2.70;;;22.60;99.90;;;;;;5090365;28;20194;-77
2022/08/25 04:44:39;;;;;;;5.05;2.95;;;22.70;99.90;;;;;;5090101;28;20243;-77
2022/08/25 04:47:05;;;;;;;8.18;3.10;;;22.70;99.90;;;;;;5086686;28;20239;-77
2022/08/25 04:49:31;;;;;;;7.07;2.80;;;22.80;99.90;;;;;;5105463;28;20551;-77
2022/08/25 04:51:58;;;;;;;7.93;3.08;;;22.90;99.90;;;;;;5096351;28;20186;-77
2022/08/25 04:54:26;;;;;;;7.10;3.15;;;22.90;99.90;;;;;;5089791;28;20222;-77
2022/08/25 04:56:53;;;;;;;5.50;2.75;;;23.00;99.90;;;;;;5088297;28;20186;-77
2022/08/25 04:59:20;;;;;;;6.28;3.13;;;23.10;99.90;;;;;;5086050;28;20186;-77
2022/08/25 05:01:47;;;;;;;8.25;3.45;;;23.10;99.90;;;;;;5085816;28;20299;-77
2022/08/25 05:04:15;;;;;;;5.60;3.10;;;23.10;99.90;;;;;;5101454;28;20182;-77
2022/08/25 05:06:43;;;;;;;6.82;3.17;;;23.10;99.90;;;;;;5088189;28;20300;-77
2022/08/25 05:09:12;;;;;;;10.43;3.67;;;23.10;99.90;;;;;;5082201;28;20234;-77
2022/08/25 05:11:38;;;;;;;6.53;3.70;;;23.20;99.90;;;;;;5071381;28;20227;-77
2022/08/25 05:14:10;;;;;;;11.68;3.58;;;23.20;99.90;;;;;;5122476;27;20177;-77
2022/08/25 05:16:37;;;;;;;8.93;2.90;;;23.20;99.90;;;;;;5066392;28;20236;-77
2022/08/25 05:19:04;;;;;;;10.88;3.58;;;23.30;99.90;;;;;;5091140;28;20197;-78
2022/08/25 05:21:32;;;;;;;7.60;3.08;;;23.30;99.90;;;;;;5121870;27;20948;-77
2022/08/25 05:24:00;;;;;;;6.70;3.08;;;23.40;99.90;;;;;;5088083;28;20633;-77
2022/08/25 05:26:30;;;;;;;6.93;3.00;;;23.40;99.90;;;;;;5067984;28;20186;-78
2022/08/25 05:28:59;;;;;;;12.95;3.78;;;23.50;99.90;;;;;;5088697;28;20236;-78
2022/08/25 05:31:31;;;;;;;7.70;2.95;;;23.60;99.90;;;;;;5094755;28;20182;-77
2022/08/25 05:33:58;;;;;;;11.23;3.33;;;23.70;99.90;;;;;;5089500;28;20718;-77
2022/08/25 05:36:28;;;;;;;7.13;3.22;;;23.80;99.90;;;;;;5070347;28;20294;-77
2022/08/25 05:38:54;;;;;;;15.52;3.40;;;23.80;99.90;;;;;;5085684;28;20194;-77
2022/08/25 05:41:27;;;;;;;8.43;3.95;;;23.90;99.90;;;;;;5087472;28;20549;-77
2022/08/25 05:43:57;;;;;;;8.32;3.50;;;24.00;99.90;;;;;;5120069;28;20182;-77
2022/08/25 05:46:24;;;;;;;12.35;3.65;;;24.00;99.90;;;;;;5122055;28;20178;-77
2022/08/25 05:48:51;;;;;;;9.93;3.55;;;24.00;99.90;;;;;;5086809;28;20296;-77
2022/08/25 05:51:21;;;;;;;14.27;4.05;;;24.00;99.90;;;;;;5108471;28;20204;-77
2022/08/25 05:53:50;;;;;;;10.00;3.17;;;23.90;99.90;;;;;;5069216;28;20175;-77
2022/08/25 05:56:18;;;;;;;8.82;2.70;;;23.90;99.90;;;;;;5081348;28;20185;-77
2022/08/25 05:58:45;;;;;;;6.63;2.78;;;23.90;99.90;;;;;;5121892;27;20178;-78
2022/08/25 06:04:07;;;;;;;9.43;2.85;;;24.00;99.90;;;;;;5078949;28;20186;-77
2022/08/25 06:06:37;;;;;;;5.75;2.58;;;24.00;99.90;;;;;;5083273;28;20273;-77
2022/08/25 06:09:07;;;;;;;10.05;3.28;;;24.10;99.90;;;;;;5101785;28;20684;-78
2022/08/25 06:11:36;;;;;;;7.53;3.13;;;24.20;99.90;;;;;;5083517;28;20206;-77
2022/08/25 06:14:03;;;;;;;7.57;3.08;;;24.30;99.90;;;;;;5089650;28;20564;-77
2022/08/25 06:16:30;;;;;;;8.35;3.22;;;24.40;99.90;;;;;;5087798;28;20247;-77
2022/08/25 06:18:56;;;;;;;12.65;3.08;;;24.40;99.90;;;;;;5087785;28;20230;-77
2022/08/25 06:21:22;;;;;;;8.88;2.70;;;24.50;99.90;;;;;;5084199;28;20231;-77
2022/08/25 06:23:50;;;;;;;12.38;2.88;;;24.60;99.90;;;;;;5105231;28;20187;-77
2022/08/25 06:26:17;;;;;;;6.28;2.70;;;24.70;99.90;;;;;;5067719;28;20276;-77
2022/08/25 06:28:43;;;;;;;6.00;2.50;;;24.70;99.90;;;;;;5070194;28;20217;-77
2022/08/25 06:31:09;;;;;;;9.60;2.83;;;24.70;99.90;;;;;;5071069;28;20206;-77
2022/08/25 06:33:36;;;;;;;5.35;2.28;;;24.70;99.90;;;;;;5085010;28;20178;-77
2022/08/25 06:36:03;;;;;;;6.28;2.42;;;24.70;99.90;;;;;;5090953;28;20190;-77
2022/08/25 06:38:29;;;;;;;7.80;2.40;;;24.70;99.90;;;;;;5092632;28;20177;-78
2022/08/25 06:40:56;;;;;;;9.75;2.78;;;24.70;99.90;;;;;;5091543;28;20190;-78
2022/08/25 06:43:23;;;;;;;8.35;2.20;;;24.70;99.90;;;;;;5080426;28;20182;-77
2022/08/25 06:45:49;;;;;;;6.90;2.35;;;24.90;99.90;;;;;;5089015;28;20640;-77
2022/08/25 06:48:16;;;;;;;4.40;2.17;;;24.90;99.90;;;;;;5092022;28;21068;-78
2022/08/25 06:50:43;;;;;;;13.15;2.47;;;25.00;99.90;;;;;;5092419;28;20208;-77
2022/08/25 06:53:11;;;;;;;6.35;2.50;;;25.10;99.90;;;;;;5095283;28;20208;-77
2022/08/25 06:55:38;;;;;;;18.02;2.78;;;25.20;99.90;;;;;;5125036;27;20201;-78
2022/08/25 06:58:06;;;;;;;11.60;2.53;;;25.40;99.90;;;;;;5090553;28;20189;-77
2022/08/25 07:00:32;;;;;;;7.38;2.28;;;25.40;99.90;;;;;;5121835;27;20211;-77
2022/08/25 07:03:00;;;;;;;10.48;2.63;;;25.50;99.90;;;;;;5087252;28;20179;-77
2022/08/25 07:05:28;;;;;;;8.45;2.58;;;25.50;99.90;;;;;;5086741;28;20563;-77
2022/08/25 07:07:54;;;;;;;7.10;2.53;;;25.60;99.90;;;;;;5107601;28;20182;-78
2022/08/25 07:10:21;;;;;;;10.90;2.72;;;25.70;99.90;;;;;;5087564;28;20190;-77
2022/08/25 07:12:47;;;;;;;5.25;2.28;;;25.70;99.90;;;;;;5094033;27;20190;-77
2022/08/25 07:15:13;;;;;;;10.07;2.38;;;25.70;99.90;;;;;;5095244;28;20269;-75
2022/08/25 07:17:39;;;;;;;6.53;2.30;;;25.70;99.90;;;;;;5073621;28;20194;-77
2022/08/25 07:20:06;;;;;;;8.63;2.75;;;25.80;99.90;;;;;;5073285;28;20182;-77
2022/08/25 07:22:33;;;;;;;10.85;2.20;;;25.80;99.90;;;;;;5096349;28;20186;-77
2022/08/25 07:24:59;;;;;;;8.68;2.05;;;25.90;99.90;;;;;;5098010;28;20188;-78
2022/08/25 07:27:26;;;;;;;5.97;2.22;;;26.00;99.90;;;;;;5070704;28;20194;-77
2022/08/25 07:29:52;;;;;;;6.55;2.42;;;26.10;99.90;;;;;;5091964;28;20698;-77
2022/08/25 07:32:19;;;;;;;4.57;1.73;;;26.00;99.90;;;;;;5089735;28;20767;-77
2022/08/25 07:37:55;;;;;;;8.13;2.17;;;26.00;99.90;;;;;;5029966;28;20179;-77
2022/08/25 07:40:35;;;;;;;7.43;2.40;;;26.10;99.90;;;;;;5107313;27;20262;-77
2022/08/25 07:43:08;;;;;;;6.50;1.98;;;26.10;99.90;;;;;;5087061;28;20512;-77
2022/08/25 07:45:38;;;;;;;9.20;2.47;;;26.20;99.90;;;;;;5090531;28;20622;-77
2022/08/25 07:48:10;;;;;;;4.25;1.88;;;26.30;99.90;;;;;;5086663;28;20192;-77
2022/08/25 07:50:41;;;;;;;7.65;2.13;;;26.30;99.90;;;;;;5097623;27;20633;-77
2022/08/25 07:53:09;;;;;;;11.30;2.00;;;26.50;99.90;;;;;;5077120;28;20179;-75
2022/08/25 07:55:36;;;;;;;6.68;1.80;;;26.50;99.90;;;;;;5086966;28;20194;-77
2022/08/25 07:58:06;;;;;;;7.88;2.45;;;26.60;99.90;;;;;;5099391;28;20858;-77
2022/08/25 08:00:37;;;;;;;5.65;1.90;;;26.70;99.90;;;;;;5086435;28;20209;-77
2022/08/25 08:03:08;;;;;;;5.15;1.63;;;26.80;99.90;;;;;;5081837;28;20208;-77
2022/08/25 08:05:39;;;;;;;4.80;1.92;;;26.80;99.90;;;;;;5066568;28;20696;-75
2022/08/25 08:08:07;;;;;;;7.00;2.10;;;26.90;99.90;;;;;;5092253;28;20191;-78
2022/08/25 08:10:42;;;;;;;6.75;2.22;;;27.00;99.90;;;;;;5080579;28;20185;-77
2022/08/25 08:13:10;;;;;;;6.30;1.90;;;27.00;99.90;;;;;;5088940;28;20178;-76
2022/08/25 08:15:43;;;;;;;5.68;1.80;;;27.10;99.90;;;;;;5084259;28;20216;-75
2022/08/25 08:18:13;;;;;;;4.03;1.73;;;27.20;99.90;;;;;;5087947;28;20185;-75
2022/08/25 08:20:43;;;;;;;7.07;2.20;;;27.20;99.90;;;;;;5079924;28;20555;-77
2022/08/25 08:23:11;;;;;;;6.03;2.45;;;27.30;99.90;;;;;;5099970;28;20178;-77
2022/08/25 08:25:37;;;;;;;7.22;2.03;;;27.30;99.90;;;;;;5075798;28;20650;-77
2022/08/25 08:28:04;;;;;;;10.00;2.00;;;27.30;99.90;;;;;;5074584;28;20248;-78
2022/08/25 08:30:30;;;;;;;7.57;1.67;;;27.30;99.90;;;;;;5078803;28;20267;-78
2022/08/25 08:33:00;;;;;;;7.93;1.92;;;27.40;99.90;;;;;;5088717;28;20179;-77
2022/08/25 08:35:29;;;;;;;4.45;1.85;;;27.40;99.90;;;;;;5087369;28;20182;-77
2022/08/25 08:37:55;;;;;;;9.15;2.05;;;27.40;99.90;;;;;;5058000;28;20285;-77
2022/08/25 08:40:22;;;;;;;4.97;1.70;;;27.40;99.90;;;;;;5086449;28;20192;-77
2022/08/25 08:43:13;;;;;;;6.22;1.73;;;27.50;99.90;;;;;;5091734;28;20500;-77
2022/08/25 08:45:52;;;;;;;5.38;1.88;;;27.60;99.90;;;;;;5084963;28;20655;-77
2022/08/25 08:49:03;;;;;;;6.55;1.90;;;27.70;99.90;;;;;;5094113;28;20229;-77
2022/08/25 08:51:47;;;;;;;12.57;1.90;;;27.90;99.90;;;;;;5075329;28;20548;-77
2022/08/25 08:54:19;;;;;;;6.65;1.77;;;28.00;99.90;;;;;;5084615;28;20546;-77
2022/08/25 08:56:54;;;;;;;4.97;1.60;;;28.00;99.90;;;;;;5079449;28;20182;-77
2022/08/25 08:59:30;;;;;;;4.47;1.42;;;28.00;99.90;;;;;;5079928;28;20277;-77
2022/08/25 09:02:02;;;;;;;3.30;1.52;;;28.00;99.90;;;;;;5086725;28;20225;-77
2022/08/25 09:04:38;;;;;;;7.75;1.70;;;28.10;99.90;;;;;;5082720;28;20193;-77
2022/08/25 09:07:20;;;;;;;4.97;1.50;;;28.10;99.90;;;;;;5089047;28;20237;-77
2022/08/25 09:09:50;;;;;;;5.50;1.75;;;28.20;99.90;;;;;;5090407;28;20307;-77
2022/08/25 09:13:16;;;;;;;6.13;1.83;;;28.30;99.90;;;;;;5102108;28;20258;-76
2022/08/25 09:19:23;;;;;;;4.63;1.70;;;28.50;99.90;;;;;;5081071;28;20185;-77
2022/08/25 09:22:05;;;;;;;6.18;1.75;;;28.50;99.90;;;;;;5088808;28;20207;-78
2022/08/25 09:25:09;;;;;;;11.00;1.90;;;28.80;99.90;;;;;;5076795;28;20240;-77
2022/08/25 09:28:12;;;;;;;4.55;1.75;;;28.80;99.90;;;;;;5107399;28;20407;-75
2022/08/25 09:31:12;;;;;;;4.97;1.40;;;28.80;99.90;;;;;;5115742;28;20188;-76
2022/08/25 09:33:42;;;;;;;6.45;2.10;;;28.90;99.90;;;;;;5109679;28;20761;-77
2022/08/25 09:36:08;;;;;;;2.88;1.52;;;29.10;99.90;;;;;;5094985;28;20214;-75
2022/08/25 09:38:36;;;;;;;4.82;1.42;;;29.00;99.90;;;;;;5089382;28;20193;-76
2022/08/25 09:41:03;;;;;;;4.80;1.70;;;29.10;99.90;;;;;;5109547;28;20212;-76
2022/08/25 09:43:40;;;;;;;9.50;2.30;;;29.10;99.90;;;;;;5125572;27;20182;-76
2022/08/25 09:46:23;;;;;;;6.70;1.98;;;29.10;99.90;;;;;;5091458;28;20280;-75
2022/08/25 09:49:15;;;;;;;5.93;1.90;;;29.30;99.90;;;;;;5125639;27;20606;-76
2022/08/25 09:51:43;;;;;;;7.22;1.92;;;29.40;99.90;;;;;;5047520;28;20357;-76
2022/08/25 09:54:12;;;;;;;5.88;1.65;;;29.40;99.90;;;;;;5048831;28;20214;-76
2022/08/25 09:57:00;;;;;;;7.57;2.10;;;29.60;99.90;;;;;;5058566;28;20187;-77
2022/08/25 09:59:34;;;;;;;5.55;1.42;;;29.50;99.90;;;;;;5067733;28;20545;-77
2022/08/25 10:02:22;;;;;;;4.95;1.70;;;29.60;99.90;;;;;;5014653;28;20435;-77
2022/08/25 10:04:49;;;;;;;5.50;1.75;;;29.40;99.90;;;;;;5051523;28;20186;-77
2022/08/25 10:07:51;;;;;;;6.68;1.60;;;29.40;99.90;;;;;;5050598;28;20198;-76
2022/08/25 10:10:44;;;;;;;7.45;1.80;;;29.70;99.90;;;;;;5035722;28;20219;-76
2022/08/25 10:13:32;;;;;;;4.28;1.42;;;29.90;99.90;;;;;;5066590;28;20186;-76
2022/08/25 10:16:26;;;;;;;6.70;1.67;;;30.10;99.90;;;;;;5017531;28;20176;-75
2022/08/25 10:19:26;;;;;;;8.25;1.73;;;30.10;99.90;;;;;;5049429;28;20200;-77
2022/08/25 10:22:31;;;;;;;6.55;1.90;;;30.10;99.90;;;;;;5042651;28;20222;-77
2022/08/25 10:24:59;;;;;;;6.50;1.50;;;30.30;99.90;;;;;;5030368;28;20187;-76
2022/08/25 10:27:57;;;;;;;7.30;1.98;;;30.30;99.90;;;;;;5046059;28;20241;-77
2022/08/25 10:31:08;;;;;;;4.82;1.52;;;30.30;99.90;;;;;;5042595;28;20680;-77
2022/08/25 10:34:04;;;;;;;6.63;1.52;;;30.20;99.90;;;;;;5033088;28;20797;-77
2022/08/25 10:37:17;;;;;;;2.53;1.50;;;30.10;99.90;;;;;;5066652;28;20192;-77
2022/08/25 10:40:14;;;;;;;3.83;1.45;;;30.10;99.90;;;;;;5010356;28;20749;-76
2022/08/25 10:43:06;;;;;;;8.13;1.85;;;30.10;99.90;;;;;;5040601;28;20197;-75
2022/08/25 10:46:06;;;;;;;6.00;1.77;;;30.00;99.90;;;;;;5051320;28;20176;-78
2022/08/25 10:49:06;;;;;;;4.45;1.30;;;30.10;99.90;;;;;;5055917;28;20911;-76
2022/08/25 10:52:10;;;;;;;6.40;1.38;;;30.20;99.90;;;;;;5071711;28;20255;-77
2022/08/25 10:55:47;;;;;;;7.05;2.05;;;30.20;99.90;;;;;;5078960;28;20182;-77
2022/08/25 10:58:50;;;;;;;4.28;1.38;;;30.20;99.90;;;;;;5052893;28;20192;-76
2022/08/25 11:02:02;;;;;;;5.47;1.60;;;30.30;99.90;;;;;;5084246;28;20186;-76
2022/08/25 11:04:51;;;;;;;5.93;1.80;;;30.30;99.90;;;;;;5076097;28;20190;-76
2022/08/25 11:07:35;;;;;;;5.75;1.52;;;30.20;99.90;;;;;;5081660;28;20198;-76
2022/08/25 11:10:24;;;;;;;6.80;1.55;;;30.00;99.90;;;;;;5085756;28;20202;-77
2022/08/25 11:12:58;;;;;;;4.57;1.40;;;30.00;99.90;;;;;;5083169;28;20267;-76
2022/08/25 11:15:34;;;;;;;9.50;1.83;;;29.80;99.90;;;;;;5099284;28;20273;-78
2022/08/25 11:18:13;;;;;;;2.80;1.10;;;29.80;99.90;;;;;;5087431;28;20639;-78
2022/08/25 11:21:05;;;;;;;3.10;1.35;;;29.80;99.90;;;;;;5064697;28;20187;-77
2022/08/25 11:24:08;;;;;;;3.13;1.42;;;29.80;99.90;;;;;;5078444;28;20237;-77
2022/08/25 11:26:45;;;;;;;7.15;1.58;;;29.80;99.90;;;;;;5043738;28;20198;-77
2022/08/25 11:29:20;;;;;;;3.47;1.38;;;29.70;99.90;;;;;;5077209;28;20716;-77
2022/08/25 11:31:53;;;;;;;4.65;1.50;;;29.80;99.90;;;;;;5093937;28;20190;-76
2022/08/25 11:34:21;;;;;;;4.80;1.50;;;29.80;99.90;;;;;;5123336;27;20836;-76
2022/08/25 11:37:02;;;;;;;10.43;1.80;;;29.90;99.90;;;;;;5106860;27;20175;-76
2022/08/25 11:40:07;;;;;;;10.18;1.90;;;29.90;99.90;;;;;;5090695;28;20193;-76
2022/08/25 11:43:06;;;;;;;3.33;1.15;;;29.70;99.90;;;;;;5064171;28;20548;-75
2022/08/25 11:46:13;;;;;;;4.22;1.45;;;29.80;99.90;;;;;;5067987;28;20821;-76
2022/08/25 11:49:36;;;;;;;6.00;1.42;;;29.80;99.90;;;;;;5116104;27;20211;-76
2022/08/25 11:52:31;;;;;;;3.47;1.52;;;29.80;99.90;;;;;;5089613;28;20601;-77
2022/08/25 11:55:17;;;;;;;9.00;1.40;;;29.80;99.90;;;;;;5102869;28;20175;-76
2022/08/25 11:57:48;;;;;;;7.57;1.70;;;29.70;99.90;;;;;;5102558;28;20281;-76
2022/08/25 12:00:38;;;;;;;4.57;1.83;;;29.70;99.90;;;;;;5120318;27;20175;-76
2022/08/25 12:03:35;;;;;;;3.30;1.30;;;29.70;99.90;;;;;;5088862;28;20273;-76
2022/08/25 12:06:28;;;;;;;7.20;1.50;;;29.70;99.90;;;;;;5089094;28;20638;-75
2022/08/25 12:09:02;;;;;;;4.15;1.50;;;29.40;99.90;;;;;;5118556;27;20233;-77
2022/08/25 12:11:41;;;;;;;5.55;1.50;;;29.30;99.90;;;;;;5118179;27;20659;-76
2022/08/25 12:14:24;;;;;;;6.30;1.90;;;29.20;99.90;;;;;;5084977;28;20204;-77
2022/08/25 12:16:54;;;;;;;6.00;1.77;;;29.20;99.90;;;;;;5063318;28;20601;-76
2022/08/25 12:19:35;;;;;;;3.97;1.23;;;29.10;99.90;;;;;;5089012;28;20628;-77
2022/08/25 12:22:02;;;;;;;6.97;1.60;;;29.00;99.90;;;;;;5083201;28;20711;-75
2022/08/25 12:25:05;;;;;;;9.18;1.40;;;29.20;99.90;;;;;;5102435;28;20212;-75
2022/08/25 12:28:15;;;;;;;9.88;1.98;;;29.20;99.90;;;;;;5082715;28;20207;-76
2022/08/25 12:30:57;;;;;;;6.38;1.50;;;29.20;99.90;;;;;;5081716;28;20202;-76
2022/08/25 12:34:04;;;;;;;4.82;1.35;;;29.40;99.90;;;;;;5079222;28;20246;-76
2022/08/25 12:36:33;;;;;;;5.88;1.40;;;29.40;99.90;;;;;;5081358;28;20281;-76
2022/08/25 12:39:22;;;;;;;4.80;1.50;;;29.40;99.90;;;;;;5091217;28;20190;-76
2022/08/25 12:42:02;;;;;;;11.57;2.28;;;29.40;99.90;;;;;;5119832;27;20204;-76
2022/08/25 12:44:35;;;;;;;3.03;1.30;;;29.50;99.90;;;;;;5088311;28;20252;-76
2022/08/25 12:47:18;;;;;;;6.45;1.60;;;29.40;99.90;;;;;;5081712;28;20189;-76
2022/08/25 12:49:46;;;;;;;3.70;1.35;;;29.30;99.90;;;;;;5109194;27;20210;-76
2022/08/25 12:52:24;;;;;;;3.83;1.38;;;29.30;99.90;;;;;;5106242;27;20202;-76
2022/08/25 12:55:04;;;;;;;2.85;1.00;;;29.30;99.90;;;;;;5062819;28;20193;-76
2022/08/25 12:58:01;;;;;;;5.90;1.70;;;29.40;99.90;;;;;;5077799;28;20229;-76
2022/08/25 13:00:58;;;;;;;4.10;1.58;;;29.30;99.90;;;;;;5112801;27;20262;-76
2022/08/25 13:03:46;;;;;;;8.90;1.70;;;29.30;99.90;;;;;;5088103;28;20208;-76
2022/08/25 13:06:34;;;;;;;6.40;1.50;;;29.30;99.90;;;;;;5088819;28;20182;-76
2022/08/25 13:09:20;;;;;;;5.03;1.60;;;29.30;99.90;;;;;;5121607;27;20218;-76
2022/08/25 13:12:28;;;;;;;7.63;1.50;;;29.30;99.90;;;;;;5105542;28;20687;-76
2022/08/25 13:14:58;;;;;;;9.40;1.60;;;29.40;99.90;;;;;;5080455;28;20215;-76
2022/08/25 13:17:34;;;;;;;4.80;1.50;;;29.30;99.90;;;;;;5089363;28;20181;-76
2022/08/25 13:20:29;;;;;;;3.53;1.50;;;29.30;99.90;;;;;;5089926;28;20181;-76
2022/08/25 13:22:59;;;;;;;5.90;1.35;;;29.00;99.90;;;;;;5088201;28;20710;-76
2022/08/25 13:25:31;;;;;;;4.40;1.40;;;29.00;99.90;;;;;;5122521;27;20218;-76
2022/08/25 13:28:03;;;;;;;3.53;1.30;;;29.00;99.90;;;;;;5104467;28;20182;-76
2022/08/25 13:30:34;;;;;;;2.70;1.23;;;29.00;99.90;;;;;;5088247;28;20206;-76
2022/08/25 13:33:18;;;;;;;5.15;1.50;;;29.00;99.90;;;;;;5081153;28;20182;-76
2022/08/25 13:38:42;;;;;;;9.57;1.70;;;29.10;99.90;;;;;;5073490;28;20214;-76
2022/08/25 13:41:10;;;;;;;4.68;1.80;;;29.10;99.90;;;;;;5071996;28;20591;-76
2022/08/25 13:43:38;;;;;;;5.25;1.23;;;29.10;99.90;;;;;;5072324;28;20898;-76